sensor_id;sensor_type;location;lat;lon;timestamp;temperature;humidity
14682;DHT22;7429;52.498;13.480;2023-03-15T00:02:39;2.80;99.90
14682;DHT22;7429;52.498;13.480;2023-03-15T00:05:44;2.70;99.90
14682;DHT22;7429;52.498;13.480;2023-03-15T00:08:48;2.70;99.90
14682;DHT22;7429;52.498;13.480;2023-03-15T00:11:53;2.70;99.90
14682;DHT22;7429;52.498;13.480;2023-03-15T00:14:57;2.70;99.90
14682;DHT22;7429;52.498;13.480;2023-03-15T00:18:01;2.70;99.90
14682;DHT22;7429;52.498;13.480;2023-03-15T00:21:05;2.70;99.90
14682;DHT22;7429;52.498;13.480;2023-03-15T00:24:08;2.60;99.90
14682;DHT22;7429;52.498;13.480;2023-03-15T00:27:12;2.60;99.90
14682;DHT22;7429;52.498;13.480;2023-03-15T00:30:16;2.60;99.90
14682;DHT22;7429;52.498;13.480;2023-03-15T00:33:20;2.60;99.90
14682;DHT22;7429;52.498;13.480;2023-03-15T00:36:23;2.60;99.90
14682;DHT22;7429;52.498;13.480;2023-03-15T00:39:27;2.60;99.90
14682;DHT22;7429;52.498;13.480;2023-03-15T00:42:30;2.60;99.90
14682;DHT22;7429;52.498;13.480;2023-03-15T00:45:35;2.50;99.90
14682;DHT22;7429;52.498;13.480;2023-03-15T00:48:40;2.50;99.90
14682;DHT22;7429;52.498;13.480;2023-03-15T00:51:43;2.50;99.90
14682;DHT22;7429;52.498;13.480;2023-03-15T00:54:50;2.50;99.90
14682;DHT22;7429;52.498;13.480;2023-03-15T00:57:54;2.50;99.90
14682;DHT22;7429;52.498;13.480;2023-03-15T01:01:03;2.50;99.90
14682;DHT22;7429;52.498;13.480;2023-03-15T01:04:07;2.50;99.90
14682;DHT22;7429;52.498;13.480;2023-03-15T01:07:10;2.50;99.90
14682;DHT22;7429;52.498;13.480;2023-03-15T01:10:14;2.50;99.90
14682;DHT22;7429;52.498;13.480;2023-03-15T01:13:17;2.40;99.90
14682;DHT22;7429;52.498;13.480;2023-03-15T01:16:22;2.40;99.90
14682;DHT22;7429;52.498;13.480;2023-03-15T01:19:25;2.40;99.90
14682;DHT22;7429;52.498;13.480;2023-03-15T01:22:28;2.40;99.90
14682;DHT22;7429;52.498;13.480;2023-03-15T01:25:31;2.40;99.90
14682;DHT22;7429;52.498;13.480;2023-03-15T01:28:36;2.40;99.90
14682;DHT22;7429;52.498;13.480;2023-03-15T01:31:40;2.40;99.90
14682;DHT22;7429;52.498;13.480;2023-03-15T01:34:43;2.40;99.90
14682;DHT22;7429;52.498;13.480;2023-03-15T01:37:48;2.30;99.90
14682;DHT22;7429;52.498;13.480;2023-03-15T01:40:52;2.30;99.90
14682;DHT22;7429;52.498;13.480;2023-03-15T01:43:55;2.20;99.90
14682;DHT22;7429;52.498;13.480;2023-03-15T01:47:00;2.20;99.90
14682;DHT22;7429;52.498;13.480;2023-03-15T01:50:06;2.20;99.90
14682;DHT22;7429;52.498;13.480;2023-03-15T01:53:11;2.20;99.90
14682;DHT22;7429;52.498;13.480;2023-03-15T01:56:14;2.20;99.90
14682;DHT22;7429;52.498;13.480;2023-03-15T01:59:23;2.20;99.90
14682;DHT22;7429;52.498;13.480;2023-03-15T02:02:30;2.20;99.90
14682;DHT22;7429;52.498;13.480;2023-03-15T02:05:36;2.10;99.90
14682;DHT22;7429;52.498;13.480;2023-03-15T02:08:54;2.10;99.90
14682;DHT22;7429;52.498;13.480;2023-03-15T02:12:03;2.10;99.90
14682;DHT22;7429;52.498;13.480;2023-03-15T02:15:08;2.10;99.90
14682;DHT22;7429;52.498;13.480;2023-03-15T02:18:14;2.00;99.90
14682;DHT22;7429;52.498;13.480;2023-03-15T02:21:30;2.00;99.90
14682;DHT22;7429;52.498;13.480;2023-03-15T02:24:43;1.90;99.90
14682;DHT22;7429;52.498;13.480;2023-03-15T02:27:53;1.90;99.90
14682;DHT22;7429;52.498;13.480;2023-03-15T02:30:57;1.80;99.90
14682;DHT22;7429;52.498;13.480;2023-03-15T02:34:04;1.70;99.90
14682;DHT22;7429;52.498;13.480;2023-03-15T02:37:08;1.70;99.90
14682;DHT22;7429;52.498;13.480;2023-03-15T02:40:17;1.60;99.90
14682;DHT22;7429;52.498;13.480;2023-03-15T02:43:24;1.60;99.90
14682;DHT22;7429;52.498;13.480;2023-03-15T02:46:30;1.60;99.90
14682;DHT22;7429;52.498;13.480;2023-03-15T02:49:37;1.60;99.90
14682;DHT22;7429;52.498;13.480;2023-03-15T02:52:43;1.60;99.90
14682;DHT22;7429;52.498;13.480;2023-03-15T02:55:46;1.60;99.90
14682;DHT22;7429;52.498;13.480;2023-03-15T02:58:50;1.50;99.90
14682;DHT22;7429;52.498;13.480;2023-03-15T03:01:53;1.60;99.90
14682;DHT22;7429;52.498;13.480;2023-03-15T03:04:56;1.50;99.90
14682;DHT22;7429;52.498;13.480;2023-03-15T03:08:00;1.50;99.90
14682;DHT22;7429;52.498;13.480;2023-03-15T03:11:03;1.50;99.90
14682;DHT22;7429;52.498;13.480;2023-03-15T03:14:09;1.50;99.90
14682;DHT22;7429;52.498;13.480;2023-03-15T03:17:15;1.40;99.90
14682;DHT22;7429;52.498;13.480;2023-03-15T03:20:19;1.40;99.90
14682;DHT22;7429;52.498;13.480;2023-03-15T03:23:22;1.30;99.90
14682;DHT22;7429;52.498;13.480;2023-03-15T03:26:26;1.30;99.90
14682;DHT22;7429;52.498;13.480;2023-03-15T03:29:35;1.30;99.90
14682;DHT22;7429;52.498;13.480;2023-03-15T03:32:38;1.20;99.90
14682;DHT22;7429;52.498;13.480;2023-03-15T03:35:42;1.20;99.90
14682;DHT22;7429;52.498;13.480;2023-03-15T03:38:45;1.20;99.90
14682;DHT22;7429;52.498;13.480;2023-03-15T03:41:49;1.20;99.90
14682;DHT22;7429;52.498;13.480;2023-03-15T03:44:53;1.20;99.90
14682;DHT22;7429;52.498;13.480;2023-03-15T03:47:59;1.20;99.90
14682;DHT22;7429;52.498;13.480;2023-03-15T03:51:04;1.30;99.90
14682;DHT22;7429;52.498;13.480;2023-03-15T03:54:07;1.30;99.90
14682;DHT22;7429;52.498;13.480;2023-03-15T03:57:11;1.40;99.90
14682;DHT22;7429;52.498;13.480;2023-03-15T04:00:17;1.40;99.90
14682;DHT22;7429;52.498;13.480;2023-03-15T04:03:21;1.50;99.90
14682;DHT22;7429;52.498;13.480;2023-03-15T04:06:33;1.40;99.90
14682;DHT22;7429;52.498;13.480;2023-03-15T04:09:36;1.50;99.90
14682;DHT22;7429;52.498;13.480;2023-03-15T04:15:47;1.40;99.90
14682;DHT22;7429;52.498;13.480;2023-03-15T04:18:50;1.30;99.90
14682;DHT22;7429;52.498;13.480;2023-03-15T04:21:57;1.30;99.90
14682;DHT22;7429;52.498;13.480;2023-03-15T04:25:20;1.20;99.90
14682;DHT22;7429;52.498;13.480;2023-03-15T04:28:40;1.10;99.90
14682;DHT22;7429;52.498;13.480;2023-03-15T04:32:11;1.00;99.90
14682;DHT22;7429;52.498;13.480;2023-03-15T04:35:25;1.00;99.90
14682;DHT22;7429;52.498;13.480;2023-03-15T04:38:35;0.90;99.90
14682;DHT22;7429;52.498;13.480;2023-03-15T04:41:53;0.80;99.90
14682;DHT22;7429;52.498;13.480;2023-03-15T04:45:06;0.80;99.90
14682;DHT22;7429;52.498;13.480;2023-03-15T04:48:29;0.80;99.90
14682;DHT22;7429;52.498;13.480;2023-03-15T04:51:57;0.80;99.90
14682;DHT22;7429;52.498;13.480;2023-03-15T04:55:22;0.70;99.90
14682;DHT22;7429;52.498;13.480;2023-03-15T04:58:43;0.70;99.90
14682;DHT22;7429;52.498;13.480;2023-03-15T05:02:01;0.60;99.90
14682;DHT22;7429;52.498;13.480;2023-03-15T05:05:24;0.60;99.90
14682;DHT22;7429;52.498;13.480;2023-03-15T05:08:42;0.60;99.90
14682;DHT22;7429;52.498;13.480;2023-03-15T05:11:58;0.60;99.90
14682;DHT22;7429;52.498;13.480;2023-03-15T05:15:22;0.50;99.90
14682;DHT22;7429;52.498;13.480;2023-03-15T05:18:33;0.40;99.90
14682;DHT22;7429;52.498;13.480;2023-03-15T05:21:56;0.50;99.90
14682;DHT22;7429;52.498;13.480;2023-03-15T05:25:18;0.40;99.90
14682;DHT22;7429;52.498;13.480;2023-03-15T05:28:39;0.40;99.90
14682;DHT22;7429;52.498;13.480;2023-03-15T05:32:04;0.50;99.90
14682;DHT22;7429;52.498;13.480;2023-03-15T05:35:47;0.50;99.90
14682;DHT22;7429;52.498;13.480;2023-03-15T05:39:27;0.60;99.90
14682;DHT22;7429;52.498;13.480;2023-03-15T05:42:42;0.60;99.90
14682;DHT22;7429;52.498;13.480;2023-03-15T05:45:55;0.70;99.90
14682;DHT22;7429;52.498;13.480;2023-03-15T05:49:08;0.80;99.90
14682;DHT22;7429;52.498;13.480;2023-03-15T05:52:40;0.80;99.90
14682;DHT22;7429;52.498;13.480;2023-03-15T05:56:06;0.90;99.90
14682;DHT22;7429;52.498;13.480;2023-03-15T05:59:32;1.00;99.90
14682;DHT22;7429;52.498;13.480;2023-03-15T06:03:02;1.10;99.90
14682;DHT22;7429;52.498;13.480;2023-03-15T06:06:23;1.20;99.90
14682;DHT22;7429;52.498;13.480;2023-03-15T06:09:27;1.30;99.90
14682;DHT22;7429;52.498;13.480;2023-03-15T06:12:31;1.30;99.90
14682;DHT22;7429;52.498;13.480;2023-03-15T06:15:34;1.30;99.90
14682;DHT22;7429;52.498;13.480;2023-03-15T06:18:39;1.30;99.90
14682;DHT22;7429;52.498;13.480;2023-03-15T06:21:43;1.40;99.90
14682;DHT22;7429;52.498;13.480;2023-03-15T06:24:55;1.40;99.90
14682;DHT22;7429;52.498;13.480;2023-03-15T06:27:59;1.50;99.90
14682;DHT22;7429;52.498;13.480;2023-03-15T06:31:05;1.60;99.90
14682;DHT22;7429;52.498;13.480;2023-03-15T06:34:16;1.70;99.90
14682;DHT22;7429;52.498;13.480;2023-03-15T06:37:20;1.70;99.90
14682;DHT22;7429;52.498;13.480;2023-03-15T06:40:37;1.80;99.90
14682;DHT22;7429;52.498;13.480;2023-03-15T06:43:41;1.80;99.90
14682;DHT22;7429;52.498;13.480;2023-03-15T06:46:45;1.80;99.90
14682;DHT22;7429;52.498;13.480;2023-03-15T06:49:49;1.80;99.90
14682;DHT22;7429;52.498;13.480;2023-03-15T06:52:53;1.80;99.90
14682;DHT22;7429;52.498;13.480;2023-03-15T06:55:57;1.80;99.90
14682;DHT22;7429;52.498;13.480;2023-03-15T06:59:02;1.80;99.90
14682;DHT22;7429;52.498;13.480;2023-03-15T07:02:05;1.70;99.90
14682;DHT22;7429;52.498;13.480;2023-03-15T07:05:09;1.80;99.90
14682;DHT22;7429;52.498;13.480;2023-03-15T07:08:12;1.80;99.90
14682;DHT22;7429;52.498;13.480;2023-03-15T07:11:15;1.90;99.90
14682;DHT22;7429;52.498;13.480;2023-03-15T07:14:20;1.90;99.90
14682;DHT22;7429;52.498;13.480;2023-03-15T07:17:23;2.00;99.90
14682;DHT22;7429;52.498;13.480;2023-03-15T07:20:26;2.10;99.90
14682;DHT22;7429;52.498;13.480;2023-03-15T07:23:30;2.20;99.90
14682;DHT22;7429;52.498;13.480;2023-03-15T07:26:34;2.40;99.90
14682;DHT22;7429;52.498;13.480;2023-03-15T07:29:38;2.50;99.90
14682;DHT22;7429;52.498;13.480;2023-03-15T07:32:44;2.70;99.90
14682;DHT22;7429;52.498;13.480;2023-03-15T07:35:47;2.70;99.90
14682;DHT22;7429;52.498;13.480;2023-03-15T07:38:51;2.80;99.90
14682;DHT22;7429;52.498;13.480;2023-03-15T07:41:54;2.80;99.90
14682;DHT22;7429;52.498;13.480;2023-03-15T07:45:08;2.80;99.90
14682;DHT22;7429;52.498;13.480;2023-03-15T07:48:12;2.80;99.90
14682;DHT22;7429;52.498;13.480;2023-03-15T07:51:15;2.80;99.90
14682;DHT22;7429;52.498;13.480;2023-03-15T07:54:21;2.90;99.90
14682;DHT22;7429;52.498;13.480;2023-03-15T07:57:24;2.80;99.90
14682;DHT22;7429;52.498;13.480;2023-03-15T08:00:31;2.90;99.90
14682;DHT22;7429;52.498;13.480;2023-03-15T08:03:35;2.90;99.90
14682;DHT22;7429;52.498;13.480;2023-03-15T08:06:38;3.00;99.90
14682;DHT22;7429;52.498;13.480;2023-03-15T08:09:44;3.00;99.90
14682;DHT22;7429;52.498;13.480;2023-03-15T08:12:49;3.00;99.90
14682;DHT22;7429;52.498;13.480;2023-03-15T08:15:53;3.10;99.90
14682;DHT22;7429;52.498;13.480;2023-03-15T08:18:56;3.10;99.90
14682;DHT22;7429;52.498;13.480;2023-03-15T08:22:00;3.20;99.90
14682;DHT22;7429;52.498;13.480;2023-03-15T08:25:04;3.20;99.90
14682;DHT22;7429;52.498;13.480;2023-03-15T08:28:08;3.20;99.90
14682;DHT22;7429;52.498;13.480;2023-03-15T08:31:16;3.20;99.90
14682;DHT22;7429;52.498;13.480;2023-03-15T08:34:19;3.20;99.90
14682;DHT22;7429;52.498;13.480;2023-03-15T08:37:23;3.20;99.90
14682;DHT22;7429;52.498;13.480;2023-03-15T08:40:26;3.20;99.90
14682;DHT22;7429;52.498;13.480;2023-03-15T08:43:30;3.20;99.90
14682;DHT22;7429;52.498;13.480;2023-03-15T08:46:34;3.20;99.90
14682;DHT22;7429;52.498;13.480;2023-03-15T08:49:37;3.30;99.90
14682;DHT22;7429;52.498;13.480;2023-03-15T08:52:41;3.30;99.90
14682;DHT22;7429;52.498;13.480;2023-03-15T08:55:44;3.30;99.90
14682;DHT22;7429;52.498;13.480;2023-03-15T08:58:47;3.30;99.90
14682;DHT22;7429;52.498;13.480;2023-03-15T09:01:51;3.40;99.90
14682;DHT22;7429;52.498;13.480;2023-03-15T09:04:54;3.40;99.90
14682;DHT22;7429;52.498;13.480;2023-03-15T09:07:57;3.40;99.90
14682;DHT22;7429;52.498;13.480;2023-03-15T09:11:01;3.40;99.90
14682;DHT22;7429;52.498;13.480;2023-03-15T09:14:04;3.40;99.90
14682;DHT22;7429;52.498;13.480;2023-03-15T09:17:09;3.40;99.90
14682;DHT22;7429;52.498;13.480;2023-03-15T09:20:13;3.40;99.90
14682;DHT22;7429;52.498;13.480;2023-03-15T09:23:17;3.50;99.90
14682;DHT22;7429;52.498;13.480;2023-03-15T09:26:20;3.60;99.90
14682;DHT22;7429;52.498;13.480;2023-03-15T09:29:24;3.80;99.90
14682;DHT22;7429;52.498;13.480;2023-03-15T09:32:28;3.90;99.90
14682;DHT22;7429;52.498;13.480;2023-03-15T09:35:36;4.00;99.90
14682;DHT22;7429;52.498;13.480;2023-03-15T09:38:41;3.90;99.90
14682;DHT22;7429;52.498;13.480;2023-03-15T09:41:46;3.90;99.90
14682;DHT22;7429;52.498;13.480;2023-03-15T09:44:55;3.80;99.90
14682;DHT22;7429;52.498;13.480;2023-03-15T09:48:09;3.80;99.90
14682;DHT22;7429;52.498;13.480;2023-03-15T09:51:17;3.80;99.90
14682;DHT22;7429;52.498;13.480;2023-03-15T09:54:36;3.80;99.90
14682;DHT22;7429;52.498;13.480;2023-03-15T09:57:45;3.80;99.90
14682;DHT22;7429;52.498;13.480;2023-03-15T10:00:52;3.80;99.90
14682;DHT22;7429;52.498;13.480;2023-03-15T10:04:03;3.90;99.90
14682;DHT22;7429;52.498;13.480;2023-03-15T10:07:13;4.00;99.90
14682;DHT22;7429;52.498;13.480;2023-03-15T10:10:18;4.00;99.90
14682;DHT22;7429;52.498;13.480;2023-03-15T10:13:36;4.00;99.90
14682;DHT22;7429;52.498;13.480;2023-03-15T10:16:46;4.10;99.90
14682;DHT22;7429;52.498;13.480;2023-03-15T10:19:55;4.30;99.90
14682;DHT22;7429;52.498;13.480;2023-03-15T10:23:06;4.40;99.90
14682;DHT22;7429;52.498;13.480;2023-03-15T10:26:14;4.70;99.90
14682;DHT22;7429;52.498;13.480;2023-03-15T10:29:24;4.70;99.90
14682;DHT22;7429;52.498;13.480;2023-03-15T10:32:33;4.70;99.90
14682;DHT22;7429;52.498;13.480;2023-03-15T10:35:41;4.70;99.90
14682;DHT22;7429;52.498;13.480;2023-03-15T10:38:45;4.80;99.90
14682;DHT22;7429;52.498;13.480;2023-03-15T10:41:51;4.80;99.90
14682;DHT22;7429;52.498;13.480;2023-03-15T10:44:54;5.00;99.90
14682;DHT22;7429;52.498;13.480;2023-03-15T10:47:57;5.40;99.90
14682;DHT22;7429;52.498;13.480;2023-03-15T10:51:06;5.70;99.90
14682;DHT22;7429;52.498;13.480;2023-03-15T10:54:17;5.90;99.90
14682;DHT22;7429;52.498;13.480;2023-03-15T10:57:24;6.10;99.90
14682;DHT22;7429;52.498;13.480;2023-03-15T11:00:30;6.30;99.90
14682;DHT22;7429;52.498;13.480;2023-03-15T11:03:34;6.10;99.90
14682;DHT22;7429;52.498;13.480;2023-03-15T11:06:42;5.80;99.90
14682;DHT22;7429;52.498;13.480;2023-03-15T11:09:51;5.50;99.90
14682;DHT22;7429;52.498;13.480;2023-03-15T11:13:10;5.30;99.90
14682;DHT22;7429;52.498;13.480;2023-03-15T11:16:21;5.20;99.90
14682;DHT22;7429;52.498;13.480;2023-03-15T11:19:26;5.20;99.90
14682;DHT22;7429;52.498;13.480;2023-03-15T11:22:31;5.10;99.90
14682;DHT22;7429;52.498;13.480;2023-03-15T11:25:35;5.10;99.90
14682;DHT22;7429;52.498;13.480;2023-03-15T11:28:43;5.10;99.90
14682;DHT22;7429;52.498;13.480;2023-03-15T11:31:50;5.40;99.90
14682;DHT22;7429;52.498;13.480;2023-03-15T11:34:58;5.60;99.90
14682;DHT22;7429;52.498;13.480;2023-03-15T11:38:08;5.70;99.90
14682;DHT22;7429;52.498;13.480;2023-03-15T11:41:25;6.10;99.90
14682;DHT22;7429;52.498;13.480;2023-03-15T11:44:37;6.50;99.90
14682;DHT22;7429;52.498;13.480;2023-03-15T11:47:45;6.80;99.90
14682;DHT22;7429;52.498;13.480;2023-03-15T11:50:52;7.00;99.90
14682;DHT22;7429;52.498;13.480;2023-03-15T12:20:49;6.80;99.90
14682;DHT22;7429;52.498;13.480;2023-03-15T12:35:06;7.60;99.90
14682;DHT22;7429;52.498;13.480;2023-03-15T12:49:04;8.30;99.90
14682;DHT22;7429;52.498;13.480;2023-03-15T12:53:18;8.10;99.90
14682;DHT22;7429;52.498;13.480;2023-03-15T12:57:44;7.70;99.90
14682;DHT22;7429;52.498;13.480;2023-03-15T13:01:29;7.20;99.90
14682;DHT22;7429;52.498;13.480;2023-03-15T13:05:31;7.10;99.90
14682;DHT22;7429;52.498;13.480;2023-03-15T13:14:05;7.50;99.90
14682;DHT22;7429;52.498;13.480;2023-03-15T13:17:27;7.70;99.90
14682;DHT22;7429;52.498;13.480;2023-03-15T13:20:40;7.90;99.90
14682;DHT22;7429;52.498;13.480;2023-03-15T13:23:58;8.10;99.90
14682;DHT22;7429;52.498;13.480;2023-03-15T13:27:04;8.40;99.90
14682;DHT22;7429;52.498;13.480;2023-03-15T13:30:32;8.70;99.90
14682;DHT22;7429;52.498;13.480;2023-03-15T13:33:39;8.80;99.90
14682;DHT22;7429;52.498;13.480;2023-03-15T13:36:44;8.90;99.90
14682;DHT22;7429;52.498;13.480;2023-03-15T13:39:56;8.90;99.90
14682;DHT22;7429;52.498;13.480;2023-03-15T13:43:02;8.70;99.90
14682;DHT22;7429;52.498;13.480;2023-03-15T13:46:06;8.60;99.90
14682;DHT22;7429;52.498;13.480;2023-03-15T13:49:11;9.00;99.90
14682;DHT22;7429;52.498;13.480;2023-03-15T13:52:14;8.80;99.90
14682;DHT22;7429;52.498;13.480;2023-03-15T13:55:30;8.50;99.90
14682;DHT22;7429;52.498;13.480;2023-03-15T13:58:37;8.10;99.90
14682;DHT22;7429;52.498;13.480;2023-03-15T14:01:42;7.80;99.90
14682;DHT22;7429;52.498;13.480;2023-03-15T14:04:47;7.10;99.90
14682;DHT22;7429;52.498;13.480;2023-03-15T14:08:00;6.60;99.90
14682;DHT22;7429;52.498;13.480;2023-03-15T14:11:08;6.30;99.90
14682;DHT22;7429;52.498;13.480;2023-03-15T14:14:22;6.40;99.90
14682;DHT22;7429;52.498;13.480;2023-03-15T14:17:30;6.60;99.90
14682;DHT22;7429;52.498;13.480;2023-03-15T14:20:56;6.90;99.90
14682;DHT22;7429;52.498;13.480;2023-03-15T14:24:05;7.50;99.90
14682;DHT22;7429;52.498;13.480;2023-03-15T14:27:14;7.80;99.90
14682;DHT22;7429;52.498;13.480;2023-03-15T14:30:24;8.20;99.90
14682;DHT22;7429;52.498;13.480;2023-03-15T14:33:37;8.40;99.90
14682;DHT22;7429;52.498;13.480;2023-03-15T14:36:46;8.50;99.90
14682;DHT22;7429;52.498;13.480;2023-03-15T14:40:15;8.60;99.90
14682;DHT22;7429;52.498;13.480;2023-03-15T14:43:21;8.40;99.90
14682;DHT22;7429;52.498;13.480;2023-03-15T14:46:32;8.60;99.90
14682;DHT22;7429;52.498;13.480;2023-03-15T14:49:40;8.60;99.90
14682;DHT22;7429;52.498;13.480;2023-03-15T14:52:46;8.70;99.90
14682;DHT22;7429;52.498;13.480;2023-03-15T14:55:50;8.80;99.90
14682;DHT22;7429;52.498;13.480;2023-03-15T14:58:56;8.80;99.90
14682;DHT22;7429;52.498;13.480;2023-03-15T15:01:59;8.70;99.90
14682;DHT22;7429;52.498;13.480;2023-03-15T15:05:17;8.60;99.90
14682;DHT22;7429;52.498;13.480;2023-03-15T15:08:23;8.70;99.90
14682;DHT22;7429;52.498;13.480;2023-03-15T15:11:26;9.00;99.90
14682;DHT22;7429;52.498;13.480;2023-03-15T15:14:30;9.00;99.90
14682;DHT22;7429;52.498;13.480;2023-03-15T15:17:34;8.70;99.90
14682;DHT22;7429;52.498;13.480;2023-03-15T15:20:39;8.50;99.90
14682;DHT22;7429;52.498;13.480;2023-03-15T15:23:46;8.10;99.90
14682;DHT22;7429;52.498;13.480;2023-03-15T15:27:03;8.00;99.90
14682;DHT22;7429;52.498;13.480;2023-03-15T15:30:10;7.70;99.90
14682;DHT22;7429;52.498;13.480;2023-03-15T15:33:17;7.50;99.90
14682;DHT22;7429;52.498;13.480;2023-03-15T15:36:24;7.40;99.90
14682;DHT22;7429;52.498;13.480;2023-03-15T15:39:31;7.30;99.90
14682;DHT22;7429;52.498;13.480;2023-03-15T15:42:34;7.20;99.90
14682;DHT22;7429;52.498;13.480;2023-03-15T15:45:38;7.10;99.90
14682;DHT22;7429;52.498;13.480;2023-03-15T15:48:42;7.10;99.90
14682;DHT22;7429;52.498;13.480;2023-03-15T15:51:47;7.00;99.90
14682;DHT22;7429;52.498;13.480;2023-03-15T15:54:53;7.00;99.90
14682;DHT22;7429;52.498;13.480;2023-03-15T15:57:56;7.00;99.90
14682;DHT22;7429;52.498;13.480;2023-03-15T16:00:59;6.90;99.90
14682;DHT22;7429;52.498;13.480;2023-03-15T16:04:02;6.80;99.90
14682;DHT22;7429;52.498;13.480;2023-03-15T16:07:09;6.80;99.90
14682;DHT22;7429;52.498;13.480;2023-03-15T16:10:17;6.80;99.90
14682;DHT22;7429;52.498;13.480;2023-03-15T16:13:22;6.80;99.90
14682;DHT22;7429;52.498;13.480;2023-03-15T16:16:25;6.70;99.90
14682;DHT22;7429;52.498;13.480;2023-03-15T16:19:28;6.70;99.90
14682;DHT22;7429;52.498;13.480;2023-03-15T16:22:33;6.60;99.90
14682;DHT22;7429;52.498;13.480;2023-03-15T16:25:48;6.10;99.90
14682;DHT22;7429;52.498;13.480;2023-03-15T16:28:54;5.30;99.90
14682;DHT22;7429;52.498;13.480;2023-03-15T16:32:00;4.70;99.90
14682;DHT22;7429;52.498;13.480;2023-03-15T16:35:20;4.30;99.90
14682;DHT22;7429;52.498;13.480;2023-03-15T16:38:28;4.20;99.90
14682;DHT22;7429;52.498;13.480;2023-03-15T16:41:37;4.20;99.90
14682;DHT22;7429;52.498;13.480;2023-03-15T16:44:40;4.30;99.90
14682;DHT22;7429;52.498;13.480;2023-03-15T16:47:44;4.20;99.90
14682;DHT22;7429;52.498;13.480;2023-03-15T16:50:47;4.30;99.90
14682;DHT22;7429;52.498;13.480;2023-03-15T16:53:54;4.20;99.90
14682;DHT22;7429;52.498;13.480;2023-03-15T16:57:17;4.20;99.90
14682;DHT22;7429;52.498;13.480;2023-03-15T17:00:23;4.10;99.90
14682;DHT22;7429;52.498;13.480;2023-03-15T17:03:26;4.10;99.90
14682;DHT22;7429;52.498;13.480;2023-03-15T17:06:31;4.20;99.90
14682;DHT22;7429;52.498;13.480;2023-03-15T17:09:36;4.10;99.90
14682;DHT22;7429;52.498;13.480;2023-03-15T17:12:39;4.10;99.90
14682;DHT22;7429;52.498;13.480;2023-03-15T17:15:43;4.10;99.90
14682;DHT22;7429;52.498;13.480;2023-03-15T17:18:46;4.10;99.90
14682;DHT22;7429;52.498;13.480;2023-03-15T17:21:50;4.20;99.90
14682;DHT22;7429;52.498;13.480;2023-03-15T17:24:55;4.30;99.90
14682;DHT22;7429;52.498;13.480;2023-03-15T17:27:58;4.30;99.90
14682;DHT22;7429;52.498;13.480;2023-03-15T17:31:01;4.20;99.90
14682;DHT22;7429;52.498;13.480;2023-03-15T17:34:24;4.20;99.90
14682;DHT22;7429;52.498;13.480;2023-03-15T17:37:29;4.20;99.90
14682;DHT22;7429;52.498;13.480;2023-03-15T17:40:36;4.20;99.90
14682;DHT22;7429;52.498;13.480;2023-03-15T17:43:39;4.20;99.90
14682;DHT22;7429;52.498;13.480;2023-03-15T17:46:44;4.30;99.90
14682;DHT22;7429;52.498;13.480;2023-03-15T17:49:47;4.20;99.90
14682;DHT22;7429;52.498;13.480;2023-03-15T17:52:53;4.10;99.90
14682;DHT22;7429;52.498;13.480;2023-03-15T17:56:01;4.20;99.90
14682;DHT22;7429;52.498;13.480;2023-03-15T17:59:04;4.20;99.90
14682;DHT22;7429;52.498;13.480;2023-03-15T18:02:12;4.10;99.90
14682;DHT22;7429;52.498;13.480;2023-03-15T18:05:19;4.10;99.90
14682;DHT22;7429;52.498;13.480;2023-03-15T18:08:23;4.00;99.90
14682;DHT22;7429;52.498;13.480;2023-03-15T18:11:29;4.00;99.90
14682;DHT22;7429;52.498;13.480;2023-03-15T18:14:36;4.10;99.90
14682;DHT22;7429;52.498;13.480;2023-03-15T18:17:39;4.00;99.90
14682;DHT22;7429;52.498;13.480;2023-03-15T18:20:43;4.00;99.90
14682;DHT22;7429;52.498;13.480;2023-03-15T18:23:47;4.00;99.90
14682;DHT22;7429;52.498;13.480;2023-03-15T18:26:51;4.00;99.90
14682;DHT22;7429;52.498;13.480;2023-03-15T18:29:55;4.00;99.90
14682;DHT22;7429;52.498;13.480;2023-03-15T18:33:00;3.90;99.90
14682;DHT22;7429;52.498;13.480;2023-03-15T18:36:06;3.90;99.90
14682;DHT22;7429;52.498;13.480;2023-03-15T18:39:10;3.90;99.90
14682;DHT22;7429;52.498;13.480;2023-03-15T18:42:15;3.90;99.90
14682;DHT22;7429;52.498;13.480;2023-03-15T18:45:20;3.80;99.90
14682;DHT22;7429;52.498;13.480;2023-03-15T18:48:24;3.80;99.90
14682;DHT22;7429;52.498;13.480;2023-03-15T18:51:41;3.80;99.90
14682;DHT22;7429;52.498;13.480;2023-03-15T18:54:43;3.80;99.90
14682;DHT22;7429;52.498;13.480;2023-03-15T18:57:48;3.80;99.90
14682;DHT22;7429;52.498;13.480;2023-03-15T19:00:52;3.70;99.90
14682;DHT22;7429;52.498;13.480;2023-03-15T19:03:55;3.70;99.90
14682;DHT22;7429;52.498;13.480;2023-03-15T19:06:58;3.70;99.90
14682;DHT22;7429;52.498;13.480;2023-03-15T19:10:02;3.70;99.90
14682;DHT22;7429;52.498;13.480;2023-03-15T19:13:07;3.60;99.90
14682;DHT22;7429;52.498;13.480;2023-03-15T19:16:10;3.50;99.90
14682;DHT22;7429;52.498;13.480;2023-03-15T19:19:13;3.60;99.90
14682;DHT22;7429;52.498;13.480;2023-03-15T19:22:16;3.60;99.90
14682;DHT22;7429;52.498;13.480;2023-03-15T19:25:19;3.50;99.90
14682;DHT22;7429;52.498;13.480;2023-03-15T19:28:26;3.60;99.90
14682;DHT22;7429;52.498;13.480;2023-03-15T19:31:32;3.50;99.90
14682;DHT22;7429;52.498;13.480;2023-03-15T19:34:35;3.50;99.90
14682;DHT22;7429;52.498;13.480;2023-03-15T19:37:47;3.50;99.90
14682;DHT22;7429;52.498;13.480;2023-03-15T19:40:50;3.40;99.90
14682;DHT22;7429;52.498;13.480;2023-03-15T19:43:58;3.40;99.90
14682;DHT22;7429;52.498;13.480;2023-03-15T19:47:07;3.40;99.90
14682;DHT22;7429;52.498;13.480;2023-03-15T19:50:11;3.40;99.90
14682;DHT22;7429;52.498;13.480;2023-03-15T19:58:41;3.40;99.90
14682;DHT22;7429;52.498;13.480;2023-03-15T20:01:51;3.30;99.90
14682;DHT22;7429;52.498;13.480;2023-03-15T20:10:24;3.20;99.90
14682;DHT22;7429;52.498;13.480;2023-03-15T20:13:27;3.20;99.90
14682;DHT22;7429;52.498;13.480;2023-03-15T20:16:32;3.10;99.90
14682;DHT22;7429;52.498;13.480;2023-03-15T20:19:39;3.10;99.90
14682;DHT22;7429;52.498;13.480;2023-03-15T20:22:43;3.10;99.90
14682;DHT22;7429;52.498;13.480;2023-03-15T20:25:47;3.10;99.90
14682;DHT22;7429;52.498;13.480;2023-03-15T20:28:50;3.10;99.90
14682;DHT22;7429;52.498;13.480;2023-03-15T20:31:53;3.10;99.90
14682;DHT22;7429;52.498;13.480;2023-03-15T20:34:58;3.10;99.90
14682;DHT22;7429;52.498;13.480;2023-03-15T20:38:03;3.20;99.90
14682;DHT22;7429;52.498;13.480;2023-03-15T20:41:09;3.10;99.90
14682;DHT22;7429;52.498;13.480;2023-03-15T20:44:14;3.10;99.90
14682;DHT22;7429;52.498;13.480;2023-03-15T20:47:17;3.00;99.90
14682;DHT22;7429;52.498;13.480;2023-03-15T20:50:22;3.00;99.90
14682;DHT22;7429;52.498;13.480;2023-03-15T20:53:25;3.00;99.90
14682;DHT22;7429;52.498;13.480;2023-03-15T20:56:29;3.00;99.90
14682;DHT22;7429;52.498;13.480;2023-03-15T20:59:34;3.00;99.90
14682;DHT22;7429;52.498;13.480;2023-03-15T21:02:38;3.00;99.90
14682;DHT22;7429;52.498;13.480;2023-03-15T21:05:44;3.00;99.90
14682;DHT22;7429;52.498;13.480;2023-03-15T21:08:47;2.90;99.90
14682;DHT22;7429;52.498;13.480;2023-03-15T21:11:51;2.80;99.90
14682;DHT22;7429;52.498;13.480;2023-03-15T21:14:54;2.80;99.90